createdAt,value
2019-03-20T00:04:09.109Z,20.77
2019-03-20T00:09:11.226Z,22.90
2019-03-20T00:14:13.284Z,15.10
2019-03-20T00:19:15.383Z,15.58
2019-03-20T00:24:17.885Z,17.57
2019-03-20T00:29:19.938Z,17.90
2019-03-20T00:34:22.232Z,20.48
2019-03-20T00:39:24.295Z,16.57
2019-03-20T00:44:26.450Z,17.90
2019-03-20T00:49:28.466Z,13.20
2019-03-20T00:54:30.536Z,26.00
2019-03-20T00:59:32.536Z,15.55
2019-03-20T01:04:34.718Z,16.57
2019-03-20T01:09:36.933Z,17.85
2019-03-20T01:14:39.052Z,21.30
2019-03-20T01:19:41.360Z,16.65
2019-03-20T01:24:43.807Z,15.38
2019-03-20T01:29:45.871Z,16.85
2019-03-20T01:34:48.040Z,18.77
2019-03-20T01:39:50.442Z,16.93
2019-03-20T01:44:53.987Z,15.75
2019-03-20T01:49:56.037Z,23.50
2019-03-20T01:54:58.138Z,17.35
2019-03-20T02:00:00.342Z,19.62
2019-03-20T02:05:03.802Z,18.32
2019-03-20T02:10:07.011Z,19.60
2019-03-20T02:15:10.998Z,14.47
2019-03-20T02:20:14.162Z,16.45
2019-03-20T02:25:17.840Z,21.75
2019-03-20T02:30:20.203Z,15.50
2019-03-20T02:35:22.212Z,15.23
2019-03-20T02:40:24.521Z,17.82
2019-03-20T02:45:26.590Z,13.98
2019-03-20T02:50:29.080Z,15.75
2019-03-20T02:55:31.133Z,12.58
2019-03-20T03:00:33.538Z,15.45
2019-03-20T03:05:35.806Z,19.02
2019-03-20T03:10:37.844Z,17.87
2019-03-20T03:15:40.625Z,15.05
2019-03-20T03:20:42.629Z,15.13
2019-03-20T03:25:45.044Z,15.30
2019-03-20T03:30:47.157Z,12.58
2019-03-20T03:35:49.195Z,12.95
2019-03-20T03:40:54.000Z,13.93
2019-03-20T03:45:58.178Z,13.35
2019-03-20T03:51:00.603Z,15.72
2019-03-20T03:56:02.983Z,18.85
2019-03-20T04:01:05.028Z,13.45
2019-03-20T04:06:07.521Z,15.05
2019-03-20T04:11:09.829Z,15.38
2019-03-20T04:16:12.422Z,16.15
2019-03-20T04:21:14.542Z,14.65
2019-03-20T04:26:16.539Z,17.98
2019-03-20T04:31:18.881Z,16.40
2019-03-20T04:36:20.957Z,15.30
2019-03-20T04:41:22.998Z,15.75
2019-03-20T04:46:25.087Z,14.70
2019-03-20T04:51:27.120Z,17.10
2019-03-20T04:56:29.400Z,13.70
2019-03-20T05:01:31.459Z,12.88
2019-03-20T05:06:33.984Z,15.23
2019-03-20T05:11:35.984Z,15.72
2019-03-20T05:16:38.105Z,11.18
2019-03-20T05:21:40.623Z,16.35
2019-03-20T05:26:42.815Z,13.85
2019-03-20T05:31:45.033Z,11.08
2019-03-20T05:36:47.225Z,9.30
2019-03-20T05:41:49.275Z,9.60
2019-03-20T05:46:51.432Z,14.47
2019-03-20T05:51:53.504Z,17.82
2019-03-20T05:56:55.722Z,14.80
2019-03-20T06:01:57.883Z,15.53
2019-03-20T06:07:00.225Z,16.65
2019-03-20T06:12:02.422Z,17.62
2019-03-20T06:17:04.505Z,14.10
2019-03-20T06:22:06.547Z,16.17
2019-03-20T06:27:08.870Z,12.45
2019-03-20T06:32:11.328Z,17.15
2019-03-20T06:37:13.435Z,16.67
2019-03-20T06:42:15.480Z,11.20
2019-03-20T06:47:17.562Z,11.63
2019-03-20T06:52:24.511Z,14.93
2019-03-20T06:57:26.798Z,13.53
2019-03-20T07:02:28.849Z,14.43
2019-03-20T07:07:43.670Z,15.88
2019-03-20T07:12:38.743Z,23.80
2019-03-20T07:17:41.055Z,18.42
2019-03-20T07:22:43.389Z,17.42
2019-03-20T07:27:45.472Z,19.90
2019-03-20T07:32:47.571Z,16.87
2019-03-20T07:37:55.913Z,18.20
2019-03-20T07:42:53.786Z,16.87
2019-03-20T07:47:56.154Z,17.70
2019-03-20T07:52:58.303Z,20.20
2019-03-20T07:58:00.558Z,19.77
2019-03-20T08:03:02.699Z,24.02
2019-03-20T08:08:07.663Z,15.23
2019-03-20T08:13:08.744Z,21.35
2019-03-20T08:18:12.083Z,19.27
2019-03-20T08:23:14.170Z,17.92
2019-03-20T08:28:16.126Z,18.45
2019-03-20T08:33:18.287Z,17.67
2019-03-20T08:38:21.490Z,20.85
2019-03-20T08:43:23.565Z,16.70
2019-03-20T08:48:25.916Z,16.05
2019-03-20T08:53:27.987Z,20.85
2019-03-20T08:58:30.392Z,17.85
2019-03-20T09:03:32.419Z,16.93
2019-03-20T09:08:34.453Z,18.92
2019-03-20T09:13:36.724Z,18.98
2019-03-20T09:18:38.782Z,26.05
2019-03-20T09:23:40.984Z,21.02
2019-03-20T09:28:43.293Z,18.27
2019-03-20T09:33:45.438Z,22.37
2019-03-20T09:38:47.439Z,19.15
2019-03-20T09:43:49.596Z,23.27
2019-03-20T09:48:51.679Z,20.92
2019-03-20T09:53:53.736Z,13.38
2019-03-20T09:58:55.781Z,12.00
2019-03-20T10:03:57.922Z,17.40
2019-03-20T10:09:01.923Z,17.45
2019-03-20T10:14:06.429Z,16.57
2019-03-20T10:19:08.489Z,16.10
2019-03-20T10:24:11.021Z,14.03
2019-03-20T10:29:13.435Z,10.23
2019-03-20T10:34:15.496Z,9.58
2019-03-20T10:39:17.897Z,12.03
2019-03-20T10:44:20.082Z,10.98
2019-03-20T10:49:23.461Z,8.68
2019-03-20T10:54:25.489Z,11.22
2019-03-20T10:59:27.691Z,7.87
2019-03-20T11:04:31.004Z,9.48
2019-03-20T11:09:33.097Z,8.88
2019-03-20T11:14:35.393Z,8.95
2019-03-20T11:19:37.560Z,7.83
2019-03-20T11:24:39.605Z,12.78
2019-03-20T11:29:41.789Z,10.70
2019-03-20T11:34:44.212Z,10.30
2019-03-20T11:39:46.708Z,12.50
2019-03-20T11:44:48.788Z,11.63
2019-03-20T11:49:50.855Z,9.53
2019-03-20T11:54:53.232Z,9.88
2019-03-20T11:59:55.381Z,8.65
2019-03-20T12:04:57.451Z,9.60
2019-03-20T12:09:59.566Z,10.00
2019-03-20T12:15:01.569Z,9.10
2019-03-20T12:20:05.928Z,6.87
2019-03-20T12:25:10.620Z,8.08
2019-03-20T12:30:14.703Z,13.72
2019-03-20T12:35:16.978Z,9.20
2019-03-20T12:40:23.571Z,5.78
2019-03-20T12:45:27.358Z,6.45
2019-03-20T12:50:29.712Z,6.30
2019-03-20T12:55:31.868Z,8.18
2019-03-20T13:00:33.990Z,8.58
2019-03-20T13:05:36.141Z,7.90
2019-03-20T13:10:38.235Z,7.70
2019-03-20T13:15:40.456Z,9.03
2019-03-20T13:20:42.781Z,10.72
2019-03-20T13:25:44.871Z,4.67
2019-03-20T13:30:56.040Z,6.72
2019-03-20T13:35:58.181Z,9.15
2019-03-20T13:41:00.642Z,11.68
2019-03-20T13:46:02.942Z,7.40
2019-03-20T13:51:05.182Z,7.25
2019-03-20T13:56:07.599Z,7.70
2019-03-20T14:01:09.585Z,8.23
2019-03-20T14:06:11.673Z,7.97
2019-03-20T14:11:14.223Z,11.12
2019-03-20T14:16:16.366Z,18.73
2019-03-20T14:21:18.426Z,7.72
2019-03-20T14:26:20.723Z,8.53
2019-03-20T14:31:24.786Z,7.90
2019-03-20T14:36:26.977Z,6.58
2019-03-20T14:41:29.018Z,8.73
2019-03-20T14:46:31.092Z,9.88
2019-03-20T14:51:33.474Z,9.83
2019-03-20T14:56:35.845Z,8.33
2019-03-20T15:01:37.906Z,7.58
2019-03-20T15:06:39.940Z,7.78
2019-03-20T15:11:42.146Z,7.40
2019-03-20T15:16:44.225Z,8.65
2019-03-20T15:21:46.285Z,7.15
2019-03-20T15:26:50.560Z,10.88
2019-03-20T15:31:52.727Z,10.58
2019-03-20T15:36:57.530Z,13.22
2019-03-20T15:41:59.738Z,6.97
2019-03-20T15:47:06.764Z,7.87
2019-03-20T15:52:08.805Z,10.58
2019-03-20T15:57:11.115Z,7.10
2019-03-20T16:02:13.210Z,7.05
2019-03-20T16:07:15.314Z,6.87
2019-03-20T16:12:17.369Z,7.80
2019-03-20T16:17:19.469Z,9.55
2019-03-20T16:22:21.488Z,8.85
2019-03-20T16:27:23.766Z,8.23
2019-03-20T16:32:25.991Z,9.90
2019-03-20T16:37:28.612Z,9.05
2019-03-20T16:42:30.738Z,8.40
2019-03-20T16:47:33.069Z,9.28
2019-03-20T16:52:36.268Z,13.53
2019-03-20T16:57:38.568Z,8.13
2019-03-20T17:02:40.760Z,9.90
2019-03-20T17:07:42.844Z,14.35
2019-03-20T17:12:45.102Z,8.20
2019-03-20T17:17:47.576Z,9.85
2019-03-20T17:22:49.917Z,9.03
2019-03-20T17:27:52.007Z,11.90
2019-03-20T17:32:54.148Z,18.05
2019-03-20T17:37:56.356Z,8.48
2019-03-20T17:42:58.512Z,9.90
2019-03-20T17:48:00.868Z,10.75
2019-03-20T17:53:03.733Z,15.07
2019-03-20T17:58:05.806Z,9.03
2019-03-20T18:03:08.141Z,10.25
2019-03-20T18:08:10.321Z,9.18
2019-03-20T18:13:12.475Z,9.28
2019-03-20T18:18:14.501Z,12.30
2019-03-20T18:23:16.779Z,9.53
2019-03-20T18:28:19.233Z,12.88
2019-03-20T18:33:22.872Z,12.37
2019-03-20T18:38:25.214Z,9.03
2019-03-20T18:43:27.295Z,14.87
2019-03-20T18:48:29.625Z,7.92
2019-03-20T18:53:31.966Z,9.15
2019-03-20T18:58:34.147Z,13.35
2019-03-20T19:03:39.060Z,11.40
2019-03-20T19:08:41.243Z,13.25
2019-03-20T19:13:43.453Z,17.75
2019-03-20T19:18:45.596Z,14.25
2019-03-20T19:23:47.702Z,15.98
2019-03-20T19:28:49.766Z,14.35
2019-03-20T19:33:52.116Z,22.15
2019-03-20T19:38:54.249Z,17.07
2019-03-20T19:43:56.320Z,15.30
2019-03-20T19:48:58.434Z,18.65
2019-03-20T19:54:00.642Z,16.27
2019-03-20T19:59:03.213Z,20.35
2019-03-20T20:04:05.299Z,17.57
2019-03-20T20:09:08.437Z,21.15
2019-03-20T20:14:10.583Z,22.55
2019-03-20T20:19:12.676Z,17.00
2019-03-20T20:24:14.786Z,20.30
2019-03-20T20:29:16.848Z,15.70
2019-03-20T20:34:19.025Z,15.38
2019-03-20T20:39:21.318Z,19.02
2019-03-20T20:44:23.402Z,15.45
2019-03-20T20:49:25.563Z,17.98
2019-03-20T20:54:27.768Z,18.20
2019-03-20T20:59:30.179Z,19.92
2019-03-20T21:04:32.503Z,19.42
2019-03-20T21:09:34.607Z,17.10
2019-03-20T21:14:36.743Z,22.50
2019-03-20T21:19:39.531Z,16.02
2019-03-20T21:24:42.220Z,18.92
2019-03-20T21:30:27.671Z,22.65
2019-03-20T21:36:25.143Z,22.62
2019-03-20T21:42:13.591Z,20.48
2019-03-20T21:47:34.049Z,20.48
2019-03-20T21:52:37.380Z,19.02
2019-03-20T21:58:05.546Z,22.50
2019-03-20T22:03:08.225Z,23.62
2019-03-20T22:08:10.870Z,19.80
2019-03-20T22:13:23.635Z,23.27
2019-03-20T22:19:03.021Z,18.73
2019-03-20T22:24:49.894Z,18.85
2019-03-20T22:29:52.458Z,16.65
2019-03-20T22:35:36.725Z,16.02
2019-03-20T22:41:28.303Z,21.80
2019-03-20T22:47:06.550Z,14.30
2019-03-20T22:52:37.269Z,17.50
2019-03-20T22:58:35.921Z,16.00
2019-03-20T23:03:42.441Z,17.45
2019-03-20T23:08:45.115Z,21.27
2019-03-20T23:13:47.773Z,15.65
2019-03-20T23:18:50.487Z,15.78
2019-03-20T23:23:53.183Z,20.25
2019-03-20T23:28:55.904Z,16.93
2019-03-20T23:33:58.611Z,19.30
2019-03-20T23:39:01.354Z,18.12
2019-03-20T23:44:03.911Z,17.40
2019-03-20T23:49:12.395Z,16.05
2019-03-20T23:54:18.438Z,24.60
2019-03-20T23:59:21.069Z,20.97
